Time;durP1;ratioP1;P1;durP2;ratioP2;P2;SDS_P1;SDS_P2;PMS_P1;PMS_P2;Temp;Humidity;BMP_temperature;BMP_pressure;BME280_temperature;BME280_humidity;BME280_pressure;Samples;Min_cycle;Max_cycle;Signal;HPM_P1;HPM_P2
2021/04/21 00:00:32;;;;;;;10.50;6.30;;;;;;;;;;3590633;39;20083;-55
2021/04/21 00:02:58;;;;;;;10.00;5.85;;;;;;;;;;3589804;40;20048;-56
2021/04/21 00:05:26;;;;;;;13.07;6.50;;;;;;;;;;3590833;40;20035;-55
2021/04/21 00:07:53;;;;;;;9.52;5.85;;;;;;;;;;3590579;40;20036;-53
2021/04/21 00:10:20;;;;;;;8.02;6.82;;;;;;;;;;3592084;39;20032;-55
2021/04/21 00:12:47;;;;;;;7.50;5.90;;;;;;;;;;3588611;40;20297;-55
2021/04/21 00:15:17;;;;;;;9.32;6.13;;;;;;;;;;3594428;39;20068;-55
2021/04/21 00:17:49;;;;;;;8.95;5.68;;;;;;;;;;3589462;39;20125;-53
2021/04/21 00:20:16;;;;;;;10.38;6.22;;;;;;;;;;3589146;40;20051;-54
2021/04/21 00:22:44;;;;;;;8.25;6.05;;;;;;;;;;3593134;39;20035;-53
2021/04/21 00:25:13;;;;;;;8.40;5.80;;;;;;;;;;3591109;40;20076;-55
2021/04/21 00:27:40;;;;;;;9.90;6.60;;;;;;;;;;3592504;39;20073;-55
2021/04/21 00:30:08;;;;;;;11.90;6.30;;;;;;;;;;3589522;40;20149;-53
2021/04/21 00:32:43;;;;;;;7.55;5.78;;;;;;;;;;3590990;39;20558;-55
2021/04/21 00:35:11;;;;;;;8.43;5.82;;;;;;;;;;3590754;40;20043;-51
2021/04/21 00:37:37;;;;;;;8.23;5.97;;;;;;;;;;3590171;39;20048;-51
2021/04/21 00:40:06;;;;;;;6.68;5.18;;;;;;;;;;3590748;40;20036;-55
2021/04/21 00:42:35;;;;;;;8.13;5.50;;;;;;;;;;3584739;40;20044;-52
2021/04/21 00:45:10;;;;;;;10.55;5.90;;;;;;;;;;3590752;39;20040;-55
2021/04/21 00:47:42;;;;;;;7.68;5.70;;;;;;;;;;3590307;40;20069;-54
2021/04/21 00:50:18;;;;;;;8.52;6.07;;;;;;;;;;3589856;40;20040;-54
2021/04/21 00:52:56;;;;;;;10.35;6.55;;;;;;;;;;3590614;40;20036;-54
2021/04/21 00:55:31;;;;;;;6.35;4.97;;;;;;;;;;3590541;39;20412;-53
2021/04/21 00:58:10;;;;;;;7.90;5.47;;;;;;;;;;3589375;40;20040;-55
2021/04/21 01:00:43;;;;;;;7.85;5.22;;;;;;;;;;3590113;39;20144;-53
2021/04/21 01:03:21;;;;;;;9.23;5.75;;;;;;;;;;3590935;40;20067;-52
2021/04/21 01:05:51;;;;;;;7.45;5.38;;;;;;;;;;3590406;39;20028;-51
2021/04/21 01:08:29;;;;;;;9.52;6.25;;;;;;;;;;3590531;40;20049;-53
2021/04/21 01:11:17;;;;;;;7.70;6.07;;;;;;;;;;3590393;40;20287;-51
2021/04/21 01:13:49;;;;;;;9.45;6.18;;;;;;;;;;3589196;40;20040;-52
2021/04/21 01:16:19;;;;;;;7.72;5.85;;;;;;;;;;3590287;40;20028;-56
2021/04/21 01:18:46;;;;;;;10.68;5.88;;;;;;;;;;3591081;40;20112;-54
2021/04/21 01:21:17;;;;;;;8.40;5.60;;;;;;;;;;3589995;40;20040;-55
2021/04/21 01:23:55;;;;;;;8.20;5.45;;;;;;;;;;3592421;39;20040;-58
2021/04/21 01:27:05;;;;;;;9.13;6.10;;;;;;;;;;3590359;40;20068;-53
2021/04/21 01:29:42;;;;;;;8.07;5.63;;;;;;;;;;3589983;40;20040;-52
2021/04/21 01:32:15;;;;;;;8.32;5.88;;;;;;;;;;3589537;39;20029;-51
2021/04/21 01:34:43;;;;;;;7.25;6.32;;;;;;;;;;3589173;39;20084;-55
2021/04/21 01:37:11;;;;;;;8.05;5.88;;;;;;;;;;3589271;40;20040;-54
2021/04/21 01:39:44;;;;;;;9.55;6.15;;;;;;;;;;3591085;39;20057;-52
2021/04/21 01:42:13;;;;;;;8.25;6.70;;;;;;;;;;3589635;40;20044;-51
2021/04/21 01:44:42;;;;;;;8.10;6.95;;;;;;;;;;3590030;39;20204;-55
2021/04/21 01:47:21;;;;;;;8.40;6.95;;;;;;;;;;3588842;40;20130;-53
2021/04/21 01:49:51;;;;;;;8.63;7.07;;;;;;;;;;3590368;39;20344;-55
2021/04/21 01:52:46;;;;;;;8.77;7.22;;;;;;;;;;3589471;40;20429;-55
2021/04/21 01:55:19;;;;;;;9.75;7.30;;;;;;;;;;3589693;40;20141;-51
2021/04/21 01:58:00;;;;;;;8.35;6.57;;;;;;;;;;3589697;39;20568;-54
2021/04/21 02:00:38;;;;;;;9.55;6.95;;;;;;;;;;3588911;40;20032;-53
2021/04/21 02:03:18;;;;;;;9.00;7.10;;;;;;;;;;3589418;40;20378;-55
2021/04/21 02:06:07;;;;;;;13.07;7.35;;;;;;;;;;3589082;40;20032;-53
2021/04/21 02:08:49;;;;;;;10.98;7.22;;;;;;;;;;3588930;40;20040;-54
2021/04/21 02:11:22;;;;;;;9.07;6.63;;;;;;;;;;3589786;40;20039;-55
2021/04/21 02:14:08;;;;;;;12.73;7.82;;;;;;;;;;3589361;40;20368;-54
2021/04/21 02:16:44;;;;;;;12.05;7.75;;;;;;;;;;3588841;40;20064;-52
2021/04/21 02:19:28;;;;;;;11.30;7.40;;;;;;;;;;3590607;40;20035;-54
2021/04/21 02:22:15;;;;;;;10.48;7.90;;;;;;;;;;3590157;40;20116;-54
2021/04/21 02:24:50;;;;;;;11.48;8.45;;;;;;;;;;3593822;39;20117;-53
2021/04/21 02:27:27;;;;;;;10.30;7.78;;;;;;;;;;3591376;39;20080;-51
2021/04/21 02:30:18;;;;;;;12.45;7.75;;;;;;;;;;3590074;40;20045;-54
2021/04/21 02:33:02;;;;;;;10.07;7.15;;;;;;;;;;3590970;40;20379;-54
2021/04/21 02:35:35;;;;;;;10.63;6.88;;;;;;;;;;3590086;40;20042;-54
2021/04/21 02:38:04;;;;;;;10.18;7.40;;;;;;;;;;3590481;39;20040;-54
2021/04/21 02:40:44;;;;;;;9.35;7.38;;;;;;;;;;3591010;40;20033;-55
2021/04/21 02:43:13;;;;;;;8.33;7.10;;;;;;;;;;3591010;40;20028;-51
2021/04/21 02:45:44;;;;;;;14.20;8.23;;;;;;;;;;3590529;39;20052;-54
2021/04/21 02:48:19;;;;;;;8.82;7.25;;;;;;;;;;3588705;39;20032;-54
2021/04/21 02:51:03;;;;;;;9.57;7.72;;;;;;;;;;3590383;40;20158;-55
2021/04/21 02:53:42;;;;;;;8.52;7.20;;;;;;;;;;3581260;39;20032;-51
2021/04/21 02:56:25;;;;;;;11.02;8.27;;;;;;;;;;3589655;40;20076;-54
2021/04/21 02:59:04;;;;;;;12.15;7.70;;;;;;;;;;3589997;40;20050;-55
2021/04/21 03:01:54;;;;;;;8.48;6.75;;;;;;;;;;3591919;40;20040;-54
2021/04/21 03:04:31;;;;;;;9.73;6.55;;;;;;;;;;3593028;40;20094;-55
2021/04/21 03:06:59;;;;;;;12.15;8.00;;;;;;;;;;3589709;39;20129;-54
2021/04/21 03:09:30;;;;;;;9.77;7.40;;;;;;;;;;3590169;40;20386;-54
2021/04/21 03:11:58;;;;;;;9.43;7.93;;;;;;;;;;3591014;40;20063;-56
2021/04/21 03:14:27;;;;;;;9.32;6.95;;;;;;;;;;3591664;40;20044;-53
2021/04/21 03:17:00;;;;;;;10.40;7.57;;;;;;;;;;3589358;40;20084;-55
2021/04/21 03:19:34;;;;;;;8.68;6.97;;;;;;;;;;3591400;40;20025;-54
2021/04/21 03:22:03;;;;;;;15.00;7.85;;;;;;;;;;3590133;40;20047;-52
2021/04/21 03:24:33;;;;;;;7.90;6.75;;;;;;;;;;3590115;40;20028;-51
2021/04/21 03:27:03;;;;;;;8.38;6.90;;;;;;;;;;3589121;40;20031;-53
2021/04/21 03:29:39;;;;;;;8.45;6.38;;;;;;;;;;3589733;40;20040;-55
2021/04/21 03:32:27;;;;;;;10.80;7.55;;;;;;;;;;3592663;39;20091;-55
2021/04/21 03:34:56;;;;;;;8.77;7.05;;;;;;;;;;3590111;39;20032;-54
2021/04/21 03:37:24;;;;;;;7.55;6.18;;;;;;;;;;3589934;40;20051;-52
2021/04/21 03:39:51;;;;;;;9.95;7.32;;;;;;;;;;3590148;40;20049;-53
2021/04/21 03:42:16;;;;;;;10.35;7.45;;;;;;;;;;3591025;40;20059;-53
2021/04/21 03:44:43;;;;;;;9.90;8.18;;;;;;;;;;3590238;39;20471;-54
2021/04/21 03:47:09;;;;;;;10.32;8.18;;;;;;;;;;3590823;39;20044;-53
2021/04/21 03:49:37;;;;;;;9.73;8.25;;;;;;;;;;3592846;39;20040;-52
2021/04/21 03:52:04;;;;;;;11.30;7.95;;;;;;;;;;3590290;40;20044;-55
2021/04/21 03:54:30;;;;;;;10.25;8.02;;;;;;;;;;3590925;39;20055;-52
2021/04/21 03:56:58;;;;;;;11.00;7.90;;;;;;;;;;3589991;40;20048;-55
2021/04/21 03:59:26;;;;;;;11.73;8.65;;;;;;;;;;3591705;40;20070;-54
2021/04/21 04:01:56;;;;;;;12.13;8.75;;;;;;;;;;3589443;40;20044;-54
2021/04/21 04:04:26;;;;;;;12.27;9.90;;;;;;;;;;3590378;40;20024;-53
2021/04/21 04:06:54;;;;;;;11.68;8.45;;;;;;;;;;3590045;39;20140;-52
2021/04/21 04:09:23;;;;;;;13.93;9.02;;;;;;;;;;3590973;40;20148;-55
2021/04/21 04:11:58;;;;;;;22.48;8.98;;;;;;;;;;3589376;40;20068;-54
2021/04/21 04:14:28;;;;;;;15.02;9.68;;;;;;;;;;3590694;39;20031;-52
2021/04/21 04:16:56;;;;;;;11.25;9.40;;;;;;;;;;3590405;40;20039;-54
2021/04/21 04:19:21;;;;;;;13.68;8.65;;;;;;;;;;3591557;39;20581;-55
2021/04/21 04:22:00;;;;;;;9.82;8.20;;;;;;;;;;3593340;39;20658;-53
2021/04/21 04:24:27;;;;;;;11.73;7.85;;;;;;;;;;3591049;40;20040;-53
2021/04/21 04:26:53;;;;;;;12.02;8.00;;;;;;;;;;3590614;40;20068;-53
2021/04/21 04:29:19;;;;;;;12.30;9.45;;;;;;;;;;3590794;39;20064;-55
2021/04/21 04:31:47;;;;;;;12.32;9.35;;;;;;;;;;3590409;39;20026;-56
2021/04/21 04:34:16;;;;;;;12.93;8.82;;;;;;;;;;3589928;40;20269;-56
2021/04/21 04:36:42;;;;;;;10.65;8.50;;;;;;;;;;3588608;40;20187;-55
2021/04/21 04:39:09;;;;;;;11.95;9.18;;;;;;;;;;3590216;40;20380;-52
2021/04/21 04:41:36;;;;;;;11.43;9.65;;;;;;;;;;3589183;39;20032;-54
2021/04/21 04:44:03;;;;;;;17.58;10.15;;;;;;;;;;3589801;40;20372;-55
2021/04/21 04:46:31;;;;;;;10.75;8.77;;;;;;;;;;3591790;40;20578;-55
2021/04/21 04:49:07;;;;;;;13.75;9.02;;;;;;;;;;3590140;40;20065;-54
2021/04/21 04:51:34;;;;;;;13.32;9.27;;;;;;;;;;3589719;40;20032;-55
2021/04/21 04:54:02;;;;;;;13.82;10.18;;;;;;;;;;3590613;39;20025;-55
2021/04/21 04:56:30;;;;;;;11.38;9.15;;;;;;;;;;3589831;40;20056;-52
2021/04/21 04:58:57;;;;;;;17.90;10.00;;;;;;;;;;3587893;39;20048;-53
2021/04/21 05:01:22;;;;;;;14.27;8.98;;;;;;;;;;3590931;39;20036;-52
2021/04/21 05:03:51;;;;;;;12.48;9.27;;;;;;;;;;3590303;39;20125;-52
2021/04/21 05:06:22;;;;;;;11.98;9.00;;;;;;;;;;3590665;40;20052;-54
2021/04/21 05:08:51;;;;;;;14.23;9.10;;;;;;;;;;3590885;39;20048;-54
2021/04/21 05:11:21;;;;;;;14.13;9.27;;;;;;;;;;3591207;40;20270;-54
2021/04/21 05:13:49;;;;;;;76.53;44.63;;;;;;;;;;3589935;40;20141;-52
2021/04/21 05:16:23;;;;;;;44.78;25.15;;;;;;;;;;3591101;39;20040;-55
2021/04/21 05:19:01;;;;;;;16.83;12.52;;;;;;;;;;3590374;40;20039;-54
2021/04/21 05:21:48;;;;;;;11.30;8.77;;;;;;;;;;3592052;39;20064;-55
2021/04/21 05:24:41;;;;;;;11.75;9.60;;;;;;;;;;3590765;40;20141;-54
2021/04/21 05:27:24;;;;;;;21.02;10.57;;;;;;;;;;3589125;40;20028;-54
2021/04/21 05:30:17;;;;;;;15.82;10.95;;;;;;;;;;3590674;40;20044;-55
2021/04/21 05:32:42;;;;;;;20.75;10.98;;;;;;;;;;3590708;39;20053;-52
2021/04/21 05:35:29;;;;;;;15.20;10.45;;;;;;;;;;3592899;39;20133;-53
2021/04/21 05:38:26;;;;;;;21.10;11.38;;;;;;;;;;3588343;40;20447;-52
2021/04/21 05:41:21;;;;;;;36.70;10.60;;;;;;;;;;3591597;39;20036;-56
2021/04/21 05:44:24;;;;;;;13.38;11.07;;;;;;;;;;3587638;40;20403;-54
2021/04/21 05:47:27;;;;;;;21.02;12.32;;;;;;;;;;3592074;39;20068;-54
2021/04/21 05:50:11;;;;;;;21.25;11.38;;;;;;;;;;3589612;39;20046;-52
2021/04/21 05:52:58;;;;;;;25.25;12.73;;;;;;;;;;3589051;39;20700;-55
2021/04/21 05:55:32;;;;;;;15.90;10.60;;;;;;;;;;3590706;39;20272;-55
2021/04/21 05:58:24;;;;;;;14.00;10.98;;;;;;;;;;3587812;39;20134;-52
2021/04/21 06:01:16;;;;;;;14.32;11.10;;;;;;;;;;3590706;39;20032;-53
2021/04/21 06:03:52;;;;;;;16.75;11.30;;;;;;;;;;3590568;39;20044;-51
2021/04/21 06:06:18;;;;;;;22.00;11.10;;;;;;;;;;3589437;40;20051;-53
2021/04/21 06:08:43;;;;;;;13.38;10.25;;;;;;;;;;3588463;39;20033;-52
2021/04/21 06:11:36;;;;;;;14.95;10.68;;;;;;;;;;3589434;40;20046;-53
2021/04/21 06:14:07;;;;;;;16.63;11.00;;;;;;;;;;3589751;39;20073;-56
2021/04/21 06:16:35;;;;;;;22.58;11.88;;;;;;;;;;3589873;39;20087;-54
2021/04/21 06:19:09;;;;;;;20.90;11.32;;;;;;;;;;3588691;40;20033;-54
2021/04/21 06:21:36;;;;;;;13.70;10.52;;;;;;;;;;3588526;39;20255;-53
2021/04/21 06:24:02;;;;;;;21.75;11.07;;;;;;;;;;3590331;39;20032;-55
2021/04/21 06:26:30;;;;;;;13.05;10.27;;;;;;;;;;3592137;39;20034;-56
2021/04/21 06:29:05;;;;;;;12.75;11.02;;;;;;;;;;3588792;40;20059;-55
2021/04/21 06:31:32;;;;;;;16.10;10.82;;;;;;;;;;3587824;39;20466;-56
2021/04/21 06:33:58;;;;;;;14.75;10.85;;;;;;;;;;3588629;39;20125;-54
2021/04/21 06:36:31;;;;;;;12.00;9.45;;;;;;;;;;3591095;39;20048;-55
2021/04/21 06:38:56;;;;;;;12.63;10.38;;;;;;;;;;3590090;39;20400;-56
2021/04/21 06:41:26;;;;;;;12.20;10.45;;;;;;;;;;3589727;40;20032;-53
2021/04/21 06:43:52;;;;;;;16.90;10.35;;;;;;;;;;3589590;40;20036;-55
2021/04/21 06:46:18;;;;;;;14.57;10.80;;;;;;;;;;3590385;39;20036;-56
2021/04/21 06:48:44;;;;;;;14.55;11.63;;;;;;;;;;3589414;39;20034;-55
2021/04/21 06:51:16;;;;;;;14.05;11.15;;;;;;;;;;3590790;40;20121;-55
2021/04/21 06:53:43;;;;;;;14.73;11.93;;;;;;;;;;3591210;39;20691;-53
2021/04/21 06:56:08;;;;;;;14.60;12.23;;;;;;;;;;3589518;39;20091;-54
2021/04/21 06:58:35;;;;;;;15.25;12.68;;;;;;;;;;3589399;39;20039;-55
2021/04/21 07:01:09;;;;;;;16.25;12.02;;;;;;;;;;3588643;39;20056;-56
2021/04/21 07:03:34;;;;;;;17.00;13.43;;;;;;;;;;3588809;39;20044;-55
2021/04/21 07:05:59;;;;;;;15.45;12.40;;;;;;;;;;3590068;40;20316;-56
2021/04/21 07:08:32;;;;;;;17.73;12.95;;;;;;;;;;3592338;39;20068;-53
2021/04/21 07:10:58;;;;;;;17.27;13.43;;;;;;;;;;3589942;40;20036;-52
2021/04/21 07:13:36;;;;;;;14.77;12.25;;;;;;;;;;3591745;39;20076;-52
2021/04/21 07:16:08;;;;;;;14.02;12.55;;;;;;;;;;3591452;39;20264;-54
2021/04/21 07:18:39;;;;;;;16.38;12.27;;;;;;;;;;3592880;39;20532;-55
2021/04/21 07:21:06;;;;;;;19.35;12.60;;;;;;;;;;3590404;39;20029;-52
2021/04/21 07:23:34;;;;;;;17.48;12.70;;;;;;;;;;3593213;39;20133;-55
2021/04/21 07:26:00;;;;;;;15.27;12.80;;;;;;;;;;3591150;39;20250;-53
2021/04/21 07:28:26;;;;;;;17.50;12.13;;;;;;;;;;3590971;40;20113;-54
2021/04/21 07:30:53;;;;;;;15.57;12.13;;;;;;;;;;3590340;39;20033;-54
2021/04/21 07:33:36;;;;;;;16.00;11.65;;;;;;;;;;3590826;39;20386;-53
2021/04/21 07:36:22;;;;;;;14.32;12.82;;;;;;;;;;3589831;39;20563;-55
2021/04/21 07:38:51;;;;;;;16.15;13.18;;;;;;;;;;3591314;40;20047;-55
2021/04/21 07:41:37;;;;;;;15.50;12.63;;;;;;;;;;3589582;40;20044;-55
2021/04/21 07:44:25;;;;;;;14.07;12.55;;;;;;;;;;3590061;39;20081;-53
2021/04/21 07:47:06;;;;;;;15.50;13.45;;;;;;;;;;3592485;39;20037;-55
2021/04/21 07:49:33;;;;;;;19.20;12.95;;;;;;;;;;3591648;39;20375;-56
2021/04/21 07:51:59;;;;;;;15.38;11.68;;;;;;;;;;3590267;39;20048;-53
2021/04/21 07:54:26;;;;;;;17.13;12.35;;;;;;;;;;3591172;39;20067;-57
2021/04/21 07:56:55;;;;;;;18.33;12.43;;;;;;;;;;3591629;39;20048;-55
2021/04/21 07:59:27;;;;;;;16.92;12.52;;;;;;;;;;3589960;39;20086;-55
2021/04/21 08:01:54;;;;;;;14.82;12.60;;;;;;;;;;3590212;39;20334;-55
2021/04/21 08:04:25;;;;;;;16.17;12.80;;;;;;;;;;3590011;39;20041;-54
2021/04/21 08:07:01;;;;;;;15.73;12.18;;;;;;;;;;3588906;39;20051;-55
2021/04/21 08:09:34;;;;;;;15.27;12.20;;;;;;;;;;3589224;39;20047;-56
2021/04/21 08:12:14;;;;;;;15.50;12.10;;;;;;;;;;3592065;39;20102;-56
2021/04/21 08:14:48;;;;;;;15.32;12.75;;;;;;;;;;3589153;39;20048;-57
2021/04/21 08:17:15;;;;;;;17.13;12.93;;;;;;;;;;3591926;39;20113;-56
2021/04/21 08:19:47;;;;;;;13.93;10.82;;;;;;;;;;3589135;39;20115;-56
2021/04/21 08:22:13;;;;;;;16.20;11.30;;;;;;;;;;3589613;39;20035;-56
2021/04/21 08:24:43;;;;;;;15.82;11.00;;;;;;;;;;3586386;39;20025;-56
2021/04/21 08:27:11;;;;;;;;;;;;;;;;;;3593887;39;20032;-56
2021/04/21 08:29:37;;;;;;;13.75;10.38;;;;;;;;;;3590905;39;19932;-57
2021/04/21 08:32:03;;;;;;;12.80;10.68;;;;;;;;;;3591335;39;20259;-56
2021/04/21 08:34:28;;;;;;;14.73;10.68;;;;;;;;;;3593907;39;20075;-55
2021/04/21 08:36:54;;;;;;;12.45;9.48;;;;;;;;;;3588872;39;20049;-55
2021/04/21 08:39:19;;;;;;;15.57;9.95;;;;;;;;;;3582698;39;20036;-56
2021/04/21 08:41:45;;;;;;;13.57;10.25;;;;;;;;;;3590661;39;20055;-55
2021/04/21 08:44:11;;;;;;;15.32;10.30;;;;;;;;;;3589486;39;20066;-57
2021/04/21 08:46:38;;;;;;;13.88;10.32;;;;;;;;;;3590598;39;20055;-55
2021/04/21 08:49:05;;;;;;;15.45;9.57;;;;;;;;;;3590338;39;20037;-57
2021/04/21 08:51:30;;;;;;;11.85;9.85;;;;;;;;;;3590663;39;20117;-56
2021/04/21 08:54:09;;;;;;;16.88;10.00;;;;;;;;;;3590017;39;20037;-55
2021/04/21 08:56:37;;;;;;;13.70;10.70;;;;;;;;;;3591195;39;20048;-56
2021/04/21 08:59:07;;;;;;;11.45;9.88;;;;;;;;;;3590517;39;20232;-57
2021/04/21 09:01:33;;;;;;;11.70;9.82;;;;;;;;;;3588714;39;20292;-55
2021/04/21 09:03:58;;;;;;;11.35;9.43;;;;;;;;;;3587582;39;20032;-57
2021/04/21 09:06:24;;;;;;;13.57;10.25;;;;;;;;;;3589093;39;20037;-57
2021/04/21 09:08:51;;;;;;;11.15;9.90;;;;;;;;;;3591620;39;20029;-55
2021/04/21 09:11:19;;;;;;;13.68;10.27;;;;;;;;;;3591724;39;20032;-57
2021/04/21 09:13:48;;;;;;;12.80;10.27;;;;;;;;;;3591315;39;20260;-56
2021/04/21 09:16:14;;;;;;;13.80;10.40;;;;;;;;;;3589701;39;20136;-56
2021/04/21 09:18:40;;;;;;;11.65;9.55;;;;;;;;;;3589456;39;20044;-57
2021/04/21 09:21:15;;;;;;;11.88;10.15;;;;;;;;;;3589407;39;20721;-57
2021/04/21 09:23:42;;;;;;;12.15;9.77;;;;;;;;;;3588865;39;20037;-57
2021/04/21 09:26:17;;;;;;;17.83;9.75;;;;;;;;;;3588831;39;20044;-57
2021/04/21 09:28:45;;;;;;;13.50;10.45;;;;;;;;;;3590206;39;20044;-55
2021/04/21 09:31:19;;;;;;;13.50;9.82;;;;;;;;;;3587768;39;20043;-57
2021/04/21 09:33:45;;;;;;;12.07;10.18;;;;;;;;;;3591072;39;20059;-57
2021/04/21 09:36:11;;;;;;;12.48;10.25;;;;;;;;;;3592169;39;20035;-55
2021/04/21 09:38:37;;;;;;;13.18;10.02;;;;;;;;;;3589324;39;20032;-52
2021/04/21 09:41:15;;;;;;;12.43;10.63;;;;;;;;;;3591362;39;20034;-54
2021/04/21 09:43:42;;;;;;;11.73;9.23;;;;;;;;;;3591607;39;20044;-56
2021/04/21 09:46:18;;;;;;;11.65;8.38;;;;;;;;;;3592942;39;20028;-55
2021/04/21 09:48:46;;;;;;;11.57;9.30;;;;;;;;;;3588324;39;20528;-52
2021/04/21 09:51:13;;;;;;;14.60;10.65;;;;;;;;;;3589455;39;20028;-55
2021/04/21 09:53:49;;;;;;;13.85;10.38;;;;;;;;;;3589341;39;20044;-56
2021/04/21 09:56:23;;;;;;;9.43;8.25;;;;;;;;;;3590071;39;20052;-56
2021/04/21 09:58:49;;;;;;;16.55;10.60;;;;;;;;;;3591935;40;20024;-52
2021/04/21 10:01:21;;;;;;;13.00;10.55;;;;;;;;;;3589909;40;20047;-54
2021/04/21 10:04:03;;;;;;;11.90;10.70;;;;;;;;;;3589664;40;20025;-53
2021/04/21 10:06:28;;;;;;;13.27;10.48;;;;;;;;;;3587643;39;20040;-54
2021/04/21 10:08:53;;;;;;;12.18;10.30;;;;;;;;;;3589049;39;20045;-49
2021/04/21 10:11:19;;;;;;;15.75;11.00;;;;;;;;;;3588679;39;20028;-53
2021/04/21 10:13:47;;;;;;;16.90;11.77;;;;;;;;;;3588688;39;20040;-54
2021/04/21 10:16:14;;;;;;;16.45;12.30;;;;;;;;;;3589710;39;20032;-51
2021/04/21 10:18:41;;;;;;;15.43;12.00;;;;;;;;;;3590126;39;20036;-55
2021/04/21 10:21:06;;;;;;;12.75;11.15;;;;;;;;;;3589309;39;20071;-56
2021/04/21 10:23:33;;;;;;;15.50;11.10;;;;;;;;;;3589679;39;20036;-56
2021/04/21 10:26:02;;;;;;;14.57;11.27;;;;;;;;;;3589573;39;20029;-54
2021/04/21 10:28:28;;;;;;;15.35;12.05;;;;;;;;;;3593450;39;20386;-54
2021/04/21 10:30:54;;;;;;;14.00;10.18;;;;;;;;;;3590798;40;20045;-58
2021/04/21 10:33:20;;;;;;;15.60;12.02;;;;;;;;;;3590106;39;20153;-55
2021/04/21 10:35:45;;;;;;;13.65;11.68;;;;;;;;;;3588288;39;20033;-54
2021/04/21 10:38:15;;;;;;;11.73;10.25;;;;;;;;;;3589098;40;20025;-58
2021/04/21 10:40:42;;;;;;;12.30;11.02;;;;;;;;;;3589493;39;20311;-55
2021/04/21 10:43:07;;;;;;;11.77;10.38;;;;;;;;;;3590021;39;20032;-55
2021/04/21 10:45:45;;;;;;;13.90;11.20;;;;;;;;;;3591107;39;20271;-56
2021/04/21 10:48:11;;;;;;;15.13;12.50;;;;;;;;;;3588539;39;20382;-56
2021/04/21 10:50:45;;;;;;;16.38;12.05;;;;;;;;;;3592276;39;20025;-56
2021/04/21 10:53:23;;;;;;;15.15;12.43;;;;;;;;;;3591295;39;20047;-56
2021/04/21 10:55:48;;;;;;;18.20;11.63;;;;;;;;;;3591844;39;20056;-56
2021/04/21 10:58:14;;;;;;;13.70;12.30;;;;;;;;;;3589596;39;20048;-51
2021/04/21 11:00:48;;;;;;;15.93;12.98;;;;;;;;;;3590363;39;20111;-54
2021/04/21 11:03:26;;;;;;;14.20;11.65;;;;;;;;;;3591509;39;20028;-55
2021/04/21 11:05:58;;;;;;;17.27;12.40;;;;;;;;;;3593488;39;20037;-54
2021/04/21 11:08:29;;;;;;;14.35;11.40;;;;;;;;;;3592935;39;20028;-55
2021/04/21 11:11:04;;;;;;;17.75;10.38;;;;;;;;;;3590328;39;20060;-56
2021/04/21 11:13:32;;;;;;;13.88;11.02;;;;;;;;;;3591376;39;20046;-56
2021/04/21 11:15:58;;;;;;;13.00;10.85;;;;;;;;;;3591234;39;20461;-57
2021/04/21 11:18:23;;;;;;;14.38;10.68;;;;;;;;;;3590238;39;20024;-54
2021/04/21 11:20:50;;;;;;;13.57;11.18;;;;;;;;;;3595907;39;20035;-56
2021/04/21 11:23:53;;;;;;;14.52;10.07;;;;;;;;;;3592385;39;20040;-56
2021/04/21 11:26:30;;;;;;;12.43;9.75;;;;;;;;;;3596253;39;20051;-54
2021/04/21 11:29:27;;;;;;;10.98;9.25;;;;;;;;;;3592924;39;20032;-57
2021/04/21 11:31:53;;;;;;;17.23;9.95;;;;;;;;;;3593227;39;20029;-56
2021/04/21 11:34:18;;;;;;;10.60;9.18;;;;;;;;;;3592103;39;20052;-56
2021/04/21 11:36:51;;;;;;;12.27;9.18;;;;;;;;;;3591270;39;20057;-53
2021/04/21 11:39:41;;;;;;;12.93;9.80;;;;;;;;;;3593227;39;20088;-57
2021/04/21 11:42:28;;;;;;;13.38;10.00;;;;;;;;;;3592306;39;20029;-58
2021/04/21 11:45:27;;;;;;;15.55;11.07;;;;;;;;;;3591319;39;20121;-57
2021/04/21 11:48:06;;;;;;;15.98;11.70;;;;;;;;;;3590279;39;20048;-57
2021/04/21 11:50:42;;;;;;;17.75;11.82;;;;;;;;;;3588574;39;20507;-56
2021/04/21 11:53:08;;;;;;;13.88;10.00;;;;;;;;;;3591939;39;20113;-55
2021/04/21 11:55:40;;;;;;;14.57;8.98;;;;;;;;;;3590842;39;20378;-51
2021/04/21 11:58:12;;;;;;;8.48;6.85;;;;;;;;;;3590493;40;20064;-54
2021/04/21 12:00:51;;;;;;;8.05;7.07;;;;;;;;;;3590786;40;20058;-52
2021/04/21 12:03:22;;;;;;;12.20;5.85;;;;;;;;;;3589781;39;20059;-53
2021/04/21 12:05:57;;;;;;;8.80;5.35;;;;;;;;;;3590334;39;20383;-55
2021/04/21 12:08:26;;;;;;;7.35;5.38;;;;;;;;;;3590376;39;20028;-56
2021/04/21 12:10:51;;;;;;;7.20;5.32;;;;;;;;;;3590638;39;20089;-54
2021/04/21 12:13:29;;;;;;;10.20;5.50;;;;;;;;;;3590164;39;20138;-54
2021/04/21 12:16:02;;;;;;;9.93;4.85;;;;;;;;;;3588938;39;20052;-56
2021/04/21 12:18:37;;;;;;;11.02;4.60;;;;;;;;;;3590986;39;20241;-53
2021/04/21 12:21:06;;;;;;;13.13;5.00;;;;;;;;;;3590898;39;20043;-56
2021/04/21 12:23:35;;;;;;;5.07;3.78;;;;;;;;;;3591434;39;20437;-55
2021/04/21 12:26:03;;;;;;;4.65;3.53;;;;;;;;;;3590360;39;20126;-54
2021/04/21 12:28:42;;;;;;;12.40;4.07;;;;;;;;;;3589051;39;20037;-56
2021/04/21 12:31:07;;;;;;;7.15;4.13;;;;;;;;;;3591470;39;20581;-52
2021/04/21 12:33:34;;;;;;;5.15;3.63;;;;;;;;;;3592962;39;20036;-56
2021/04/21 12:35:59;;;;;;;6.28;3.63;;;;;;;;;;3588718;39;20037;-56
2021/04/21 12:38:33;;;;;;;8.18;3.55;;;;;;;;;;3591767;39;20337;-56
2021/04/21 12:41:00;;;;;;;6.43;4.18;;;;;;;;;;3586828;39;20040;-55
2021/04/21 12:43:28;;;;;;;6.47;4.05;;;;;;;;;;3588443;39;20031;-55
2021/04/21 12:46:09;;;;;;;6.60;4.75;;;;;;;;;;3587555;39;20032;-55
2021/04/21 12:48:34;;;;;;;;;;;;;;;;;;3590366;39;20039;-54
2021/04/21 12:50:59;;;;;;;9.05;5.22;;;;;;;;;;3591522;39;19924;-53
2021/04/21 12:53:31;;;;;;;8.70;6.15;;;;;;;;;;3592544;39;20051;-56
2021/04/21 12:56:08;;;;;;;9.10;6.53;;;;;;;;;;3590809;39;20060;-53
2021/04/21 12:58:36;;;;;;;10.75;6.40;;;;;;;;;;3590213;39;20044;-55
2021/04/21 13:01:20;;;;;;;11.68;8.02;;;;;;;;;;3589765;39;20531;-56
2021/04/21 13:04:04;;;;;;;11.93;8.98;;;;;;;;;;3591044;39;20283;-57
2021/04/21 13:06:49;;;;;;;11.77;8.27;;;;;;;;;;3590487;39;20028;-56
2021/04/21 13:09:27;;;;;;;8.82;7.05;;;;;;;;;;3585239;39;20213;-56
2021/04/21 13:12:00;;;;;;;9.68;6.40;;;;;;;;;;3588695;39;20039;-53
2021/04/21 13:14:40;;;;;;;8.75;6.25;;;;;;;;;;3589624;39;20043;-55
2021/04/21 13:17:07;;;;;;;7.55;5.32;;;;;;;;;;3589878;39;20319;-55
2021/04/21 13:19:35;;;;;;;6.88;4.40;;;;;;;;;;3587794;40;20042;-53
2021/04/21 13:22:08;;;;;;;7.60;5.05;;;;;;;;;;3578246;40;20610;-55
2021/04/21 13:24:56;;;;;;;6.93;4.57;;;;;;;;;;3589129;39;20359;-55
2021/04/21 13:27:26;;;;;;;8.32;4.68;;;;;;;;;;3589703;39;20096;-50
2021/04/21 13:30:00;;;;;;;9.02;5.15;;;;;;;;;;3588722;40;20056;-56
2021/04/21 13:32:27;;;;;;;6.70;4.95;;;;;;;;;;3589420;40;20133;-55
2021/04/21 13:34:52;;;;;;;7.57;5.50;;;;;;;;;;3591711;39;20136;-56
2021/04/21 13:37:18;;;;;;;9.15;6.30;;;;;;;;;;3588883;39;20055;-55
2021/04/21 13:40:01;;;;;;;7.35;5.65;;;;;;;;;;3587177;40;20060;-54
2021/04/21 13:42:27;;;;;;;9.23;5.43;;;;;;;;;;3588725;39;20145;-53
2021/04/21 13:44:54;;;;;;;8.50;6.35;;;;;;;;;;3588764;39;20060;-55
2021/04/21 13:47:20;;;;;;;7.80;5.80;;;;;;;;;;3588477;40;20415;-54
2021/04/21 13:49:46;;;;;;;9.38;6.72;;;;;;;;;;3589538;39;20039;-56
2021/04/21 13:52:14;;;;;;;9.18;7.40;;;;;;;;;;3589068;40;20044;-54
2021/04/21 13:54:43;;;;;;;10.43;5.22;;;;;;;;;;3589630;39;20451;-55
2021/04/21 13:57:10;;;;;;;8.38;4.82;;;;;;;;;;3577904;40;21001;-54
2021/04/21 13:59:41;;;;;;;5.75;4.30;;;;;;;;;;3588409;39;20491;-54
2021/04/21 14:02:08;;;;;;;6.63;4.30;;;;;;;;;;3587389;40;20041;-53
2021/04/21 14:04:36;;;;;;;6.63;4.45;;;;;;;;;;3587079;40;20055;-54
2021/04/21 14:07:01;;;;;;;6.38;4.00;;;;;;;;;;3587252;39;20516;-55
2021/04/21 14:09:29;;;;;;;11.98;5.03;;;;;;;;;;3589971;39;20070;-54
2021/04/21 14:11:55;;;;;;;14.27;5.00;;;;;;;;;;3587514;39;20398;-55
2021/04/21 14:14:20;;;;;;;5.47;4.28;;;;;;;;;;3590368;39;20033;-56
2021/04/21 14:16:47;;;;;;;6.70;4.40;;;;;;;;;;3589146;39;20036;-55
2021/04/21 14:19:13;;;;;;;6.03;4.38;;;;;;;;;;3592526;40;20032;-53
2021/04/21 14:21:39;;;;;;;7.43;4.82;;;;;;;;;;3589754;39;20044;-55
2021/04/21 14:24:12;;;;;;;8.68;4.75;;;;;;;;;;3588608;39;20430;-55
2021/04/21 14:26:39;;;;;;;5.68;4.85;;;;;;;;;;3590301;39;20070;-56
2021/04/21 14:29:05;;;;;;;9.00;4.88;;;;;;;;;;3589652;40;20485;-54
2021/04/21 14:31:34;;;;;;;6.18;4.35;;;;;;;;;;3588935;39;20032;-54
2021/04/21 14:34:00;;;;;;;8.57;6.53;;;;;;;;;;3590423;39;20025;-53
2021/04/21 14:36:27;;;;;;;8.32;6.82;;;;;;;;;;3588424;39;20036;-56
2021/04/21 14:38:52;;;;;;;9.27;6.90;;;;;;;;;;3589774;39;20038;-54
2021/04/21 14:41:20;;;;;;;8.77;6.97;;;;;;;;;;3586536;39;20036;-57
2021/04/21 14:43:46;;;;;;;18.40;8.60;;;;;;;;;;3589134;39;20495;-57
2021/04/21 14:46:12;;;;;;;13.00;8.70;;;;;;;;;;3589539;39;20029;-56
2021/04/21 14:48:37;;;;;;;14.82;9.30;;;;;;;;;;3589449;39;20036;-54
2021/04/21 14:51:03;;;;;;;12.43;8.95;;;;;;;;;;3589590;39;20128;-55
2021/04/21 14:53:29;;;;;;;12.02;8.75;;;;;;;;;;3590637;39;20103;-56
2021/04/21 14:55:55;;;;;;;12.95;8.13;;;;;;;;;;3589497;39;20516;-55
2021/04/21 14:58:20;;;;;;;15.18;8.43;;;;;;;;;;3589611;39;20443;-56